Weather reports worldwide

Advertisment
Stonyhurst, United Kingdom (99060): temperature & dewpoint: 13.10.2018 11:00:00 - 19.10.2018 11:00:00 (BST)Stonyhurst, United Kingdom (99060): precipitation: 13.10.2018 11:00:00 - 19.10.2018 11:00:00 (BST)
Date & Time tt [°C] td [°C] rr [mm]
19.10.2018 11:00:00 - - -
19.10.2018 10:00:00 7,5 6,6 0,0
19.10.2018 09:00:00 6,5 6,1 0,0
19.10.2018 08:00:00 5,4 5,0 0,0
19.10.2018 07:00:00 4,5 3,5 0,0
19.10.2018 06:00:00 5,1 4,2 0,0
19.10.2018 05:00:00 5,5 4,4 0,0
19.10.2018 04:00:00 3,9 3,0 0,0
19.10.2018 03:00:00 4,5 3,5 0,0
19.10.2018 02:00:00 3,7 2,3 0,0
19.10.2018 01:00:00 3,9 2,3 0,0
19.10.2018 00:00:00 4,3 2,5 0,0
18.10.2018 23:00:00 4,4 2,5 0,0
18.10.2018 22:00:00 5,0 2,8 0,0
18.10.2018 21:00:00 - - 0,0
18.10.2018 20:00:00 - - 0,0
18.10.2018 19:00:00 - - 0,0
18.10.2018 18:00:00 - - 0,0
18.10.2018 17:00:00 - - 0,0
18.10.2018 16:00:00 - - 0,0
18.10.2018 15:00:00 - - 0,0
18.10.2018 14:00:00 - - 0,0
18.10.2018 13:00:00 - - 0,0
18.10.2018 12:00:00 10,3 6,0 0,0
18.10.2018 11:00:00 7,9 5,4 0,0
18.10.2018 10:00:00 4,9 4,7 0,0
18.10.2018 09:00:00 3,5 3,5 0,2
18.10.2018 08:00:00 1,8 1,7 0,0
18.10.2018 07:00:00 1,7 1,6 0,0
18.10.2018 06:00:00 2,3 2,3 0,0
18.10.2018 05:00:00 2,6 2,4 0,0
18.10.2018 04:00:00 2,8 2,6 0,0
18.10.2018 03:00:00 3,7 3,3 0,0
18.10.2018 02:00:00 4,8 4,4 0,0
18.10.2018 01:00:00 6,0 5,8 0,0
18.10.2018 00:00:00 5,6 5,3 0,0
17.10.2018 23:00:00 6,4 5,9 0,0
17.10.2018 22:00:00 7,1 6,2 0,0
17.10.2018 21:00:00 8,5 6,8 0,0
17.10.2018 20:00:00 10,0 7,6 0,0
17.10.2018 19:00:00 9,7 8,3 0,0
17.10.2018 18:00:00 11,3 9,0 0,0
17.10.2018 17:00:00 12,5 9,3 0,0
17.10.2018 16:00:00 13,4 9,6 0,0
17.10.2018 15:00:00 13,2 10,0 0,0
17.10.2018 14:00:00 13,4 9,8 0,0
17.10.2018 13:00:00 12,8 10,2 0,0
17.10.2018 12:00:00 12,8 11,1 0,0
17.10.2018 11:00:00 12,2 11,5 0,0
17.10.2018 10:00:00 11,0 10,8 0,0
17.10.2018 09:00:00 10,7 10,6 0,0
17.10.2018 08:00:00 10,9 10,6 0,0
17.10.2018 07:00:00 11,3 11,0 0,0
17.10.2018 06:00:00 11,3 11,0 0,0
17.10.2018 05:00:00 11,2 10,8 0,0
17.10.2018 04:00:00 11,1 10,8 0,0
17.10.2018 03:00:00 11,2 10,9 0,0
17.10.2018 02:00:00 11,3 11,0 0,6
17.10.2018 01:00:00 11,4 11,0 0,2
17.10.2018 00:00:00 11,4 10,8 0,2
16.10.2018 23:00:00 12,0 11,0 0,0
16.10.2018 22:00:00 11,7 11,1 0,0
16.10.2018 21:00:00 11,7 10,9 0,4
16.10.2018 20:00:00 13,4 10,4 0,0
16.10.2018 19:00:00 13,7 10,6 0,0
16.10.2018 18:00:00 14,1 12,2 0,0
16.10.2018 17:00:00 14,4 12,3 0,0
16.10.2018 16:00:00 15,0 12,4 0,0
16.10.2018 15:00:00 14,8 12,3 0,0
16.10.2018 14:00:00 14,5 12,2 0,0
16.10.2018 13:00:00 14,1 11,7 0,0
16.10.2018 12:00:00 13,8 12,2 0,0
16.10.2018 11:00:00 12,5 11,2 0,0
16.10.2018 10:00:00 11,8 10,8 0,0
16.10.2018 09:00:00 11,3 10,6 0,0
16.10.2018 08:00:00 11,1 10,4 0,0
16.10.2018 07:00:00 11,1 10,2 0,0
16.10.2018 06:00:00 10,4 9,4 0,0
16.10.2018 05:00:00 10,1 9,0 0,0
16.10.2018 04:00:00 10,2 9,0 0,0
16.10.2018 03:00:00 10,0 8,8 0,0
16.10.2018 02:00:00 10,1 8,7 0,0
16.10.2018 01:00:00 9,8 8,3 0,0
16.10.2018 00:00:00 9,8 8,1 0,0
15.10.2018 23:00:00 10,0 7,7 0,0
15.10.2018 22:00:00 9,9 7,7 0,0
15.10.2018 21:00:00 9,8 7,6 0,0
15.10.2018 20:00:00 10,0 7,1 0,0
15.10.2018 19:00:00 10,2 7,1 0,0
15.10.2018 18:00:00 10,9 7,2 0,0
15.10.2018 17:00:00 11,3 7,7 0,0
15.10.2018 16:00:00 11,7 7,3 0,0
15.10.2018 15:00:00 13,2 7,8 0,0
15.10.2018 14:00:00 12,8 7,7 0,0
15.10.2018 13:00:00 12,8 8,0 0,0
15.10.2018 12:00:00 10,6 7,0 0,0
15.10.2018 11:00:00 8,5 5,8 0,0
15.10.2018 10:00:00 7,2 5,2 0,0
15.10.2018 09:00:00 6,7 5,0 0,0
15.10.2018 08:00:00 5,5 4,4 0,0
15.10.2018 07:00:00 5,4 4,3 0,0
15.10.2018 06:00:00 5,1 4,6 0,0
15.10.2018 05:00:00 4,1 3,7 0,0
15.10.2018 04:00:00 4,8 4,6 0,0
15.10.2018 03:00:00 3,9 3,7 0,0
15.10.2018 02:00:00 3,7 3,5 0,0
15.10.2018 01:00:00 4,0 3,8 0,0
15.10.2018 00:00:00 4,5 4,1 0,0
14.10.2018 23:00:00 5,1 4,8 0,0
14.10.2018 22:00:00 5,6 5,2 0,0
14.10.2018 21:00:00 6,0 5,5 0,0
14.10.2018 20:00:00 6,1 5,2 0,0
14.10.2018 19:00:00 7,4 5,8 0,0
14.10.2018 18:00:00 9,2 6,4 0,0
14.10.2018 17:00:00 10,8 5,5 0,0
14.10.2018 16:00:00 12,0 6,8 0,0
14.10.2018 15:00:00 10,5 8,0 0,0
14.10.2018 14:00:00 9,9 8,0 0,0
14.10.2018 13:00:00 9,5 8,3 0,2
14.10.2018 12:00:00 9,4 8,4 0,6
14.10.2018 11:00:00 9,6 8,1 0,0
14.10.2018 10:00:00 9,3 8,2 0,0
14.10.2018 09:00:00 9,2 8,0 0,0
14.10.2018 08:00:00 9,1 8,1 0,0
14.10.2018 07:00:00 9,4 8,0 0,0
14.10.2018 06:00:00 10,1 7,9 0,0
14.10.2018 05:00:00 10,4 9,2 0,0
14.10.2018 04:00:00 10,6 10,0 0,2
14.10.2018 03:00:00 11,6 10,8 0,8
14.10.2018 02:00:00 14,7 11,0 0,0
14.10.2018 01:00:00 15,0 11,1 0,0
14.10.2018 00:00:00 15,7 11,0 0,0
13.10.2018 23:00:00 16,5 11,6 0,0
13.10.2018 22:00:00 16,8 14,3 0,2
13.10.2018 21:00:00 17,1 15,2 1,2
13.10.2018 20:00:00 18,1 15,2 0,4
13.10.2018 19:00:00 18,2 15,9 0,0
13.10.2018 18:00:00 19,2 15,3 0,0
13.10.2018 17:00:00 19,5 15,1 0,0
13.10.2018 16:00:00 19,6 15,2 0,6
13.10.2018 15:00:00 20,1 15,2 0,0
13.10.2018 14:00:00 19,6 16,4 0,2
13.10.2018 13:00:00 19,1 17,7 0,6
13.10.2018 12:00:00 18,7 17,4 1,6
13.10.2018 11:00:00 18,2 17,1 1,4

tt = temperature
td = dewpoint
rr = precipitation

Next stations